Terminal Aerodrome Forecast
Issued by NWS Boston, MA

Home | Current Version | Previous Version | Text Only | Print | Product List | Glossary On
Versions: 1 2 3 4 5 6 7 8 9 10 11 12 13 14 15 16 17 18 19 20 21
000
FTUS41 KBOX 061131
TAFPVD
TAF
KPVD 061131Z 0612/0712 34006KT P6SM SKC
     FM061800 04005KT P6SM SCT200
     FM070000 07005KT P6SM BKN100
     FM070200 07005KT P6SM VCSH OVC045
     FM070600 05005KT P6SM -RASN OVC025=

USA.gov is the U.S. government's official web portal to all federal, state and local government web resources and services.